ADDS METAR Data INFO
IDs: Format: Raw Decoded Include TAF

Data at: 1532 UTC 18 Jun 2018

KGAG 181453Z AUTO 19019KT 10SM CLR 27/20 A2999 RMK AO2 PK WND 17026/1416 SLP127 T02720200 51009
KGAG 181353Z AUTO 18021G27KT 10SM CLR 27/20 A2999 RMK AO2 PK WND 18028/1336 SLP125 T02670200
KGAG 181253Z AUTO 17020KT 10SM CLR 25/19 A2998 RMK AO2 SLP121 T02500194
KGAG 181153Z AUTO 17015KT 10SM FEW110 24/19 A2996 RMK AO2 SLP117 T02440194 10250 20239 53005
KGAG 181053Z AUTO 18014KT 10SM SCT110 24/19 A2995 RMK AO2 SLP108 T02390194
KGAG 180953Z AUTO 17015KT 10SM FEW100 SCT120 25/19 A2995 RMK AO2 SLP108 T02500189
KGAG 180853Z AUTO 17016G21KT 10SM BKN100 25/19 A2995 RMK AO2 SLP106 T02500189 58001
KGAG 180753Z AUTO 17015KT 10SM CLR 25/19 A2994 RMK AO2 SLP105 T02500189
KGAG 180653Z AUTO 17009KT 10SM CLR 24/19 A2996 RMK AO2 SLP110 T02390189
KGAG 180553Z AUTO 17008KT 10SM CLR 24/19 A2995 RMK AO2 SLP109 T02390189 10283 20222 403560211 50007
KGAG 180453Z AUTO 15005KT 10SM CLR 23/19 A2995 RMK AO2 SLP112 T02280194
KGAG 180353Z AUTO 14005KT 10SM CLR 23/20 A2995 RMK AO2 SLP111 T02330200
KGAG 180253Z AUTO 20008KT 10SM FEW075 25/20 A2993 RMK AO2 SLP104 T02500200 53007
KGAG 180153Z AUTO 21011KT 10SM CLR 26/20 A2992 RMK AO2 SLP100 T02610200
KGAG 180053Z AUTO 22011G16KT 10SM FEW100 27/19 A2991 RMK AO2 SLP100 T02720194
KGAG 172353Z AUTO 23012KT 10SM FEW065 FEW080 28/19 A2991 RMK AO2 PK WND 16027/2256 WSHFT 2257 SLP098 T02780194 10356 20272 53008
KGAG 172317Z AUTO 24016G22KT 10SM BKN070 28/19 A2990 RMK AO2 PK WND 16027/2256 WSHFT 2257 T02830194
KGAG 172253Z AUTO 16021G30KT 10SM SCT090 33/17 A2989 RMK AO2 PK WND 17030/2247 SLP087 T03330167
KGAG 172153Z AUTO 18022G30KT 10SM FEW070 35/16 A2989 RMK AO2 PK WND 18033/2122 SLP088 T03500156
KGAG 172053Z AUTO 18024G31KT 10SM FEW070 35/15 A2988 RMK AO2 PK WND 18032/2019 SLP085 T03500150 58012
KGAG 171953Z AUTO 16016G28KT 10SM FEW065 34/16 A2989 RMK AO2 PK WND 17028/1855 SLP090 T03440161
KGAG 171853Z AUTO 16022G27KT 10SM BKN055 33/18 A2991 RMK AO2 PK WND 17033/1843 SLP096 T03330178
KGAG 171753Z AUTO 19019KT 10SM SCT049 32/19 A2992 RMK AO2 PK WND 16026/1741 SLP100 T03220189 10328 20233 58002
KGAG 171653Z AUTO 19016KT 10SM FEW041 SCT050 31/19 A2993 RMK AO2 PK WND 19027/1624 SLP103 T03060194
KGAG 171553Z AUTO 20019G27KT 10SM SCT035 29/20 A2993 RMK AO2 PK WND 19028/1524 SLP101 T02940200
KGAG 171453Z AUTO 19020G24KT 10SM FEW031 28/20 A2992 RMK AO2 SLP099 T02830200 51013
KGAG 171353Z AUTO 18014KT 10SM CLR 26/20 A2991 RMK AO2 SLP096 T02610200
KGAG 171253Z AUTO 18010KT 10SM CLR 24/19 A2991 RMK AO2 SLP095 T02440194
KGAG 171153Z AUTO 17015KT 10SM CLR 23/19 A2988 RMK AO2 SLP087 60021 70022 T02330189 10233 20211 53005
KGAG 171053Z AUTO 16012KT 10SM CLR 23/19 A2986 RMK AO2 SLP079 T02280194
KGAG 170953Z AUTO 14009KT 10SM CLR 22/19 A2986 RMK AO2 SLP080 T02220194
KGAG 170853Z AUTO 11005KT 10SM CLR 22/21 A2986 RMK AO2 SLP080 60021 T02170206 56030
KGAG 170753Z AUTO 12005KT 10SM FEW110 22/21 A2988 RMK AO2 RAE45 SLP085 P0000 T02170206
KGAG 170653Z AUTO 00000KT 4SM RA BR FEW070 BKN090 OVC110 22/20 A2992 RMK AO2 SLP099 P0021 T02170200
KGAG 170613Z AUTO 25005KT 3SM -RA BR FEW030 SCT041 OVC050 21/20 A2995 RMK AO2 P0019 T02110200
KGAG 170558Z AUTO 25015KT 1 3/4SM +RA BR FEW027 BKN042 OVC050 21/19 A2996 RMK AO2 P0010 T02110194
KGAG 170553Z AUTO 25012KT 8SM -RA BKN042 OVC050 21/19 A2996 RMK AO2 RAB33 SLP114 P0001 60001 T02110194 10322 20211 403560211 51037
KGAG 170453Z AUTO 28008KT 10SM BKN065 OVC075 23/18 A2992 RMK AO2 WSHFT 0413 SLP102 T02330178
KGAG 170427Z AUTO 30013G22KT 10SM BKN065 OVC095 26/17 A2991 RMK AO2 WSHFT 0413 PRESRR T02560172
KGAG 170353Z AUTO 16016KT 10SM SCT070 BKN110 29/17 A2988 RMK AO2 SLP086 T02890167